createdAt,value
2018-07-31T00:00:51.605Z,67.44
2018-07-31T00:03:20.525Z,66.37
2018-07-31T00:05:49.331Z,67.05
2018-07-31T00:08:18.320Z,66.16
2018-07-31T00:10:47.250Z,66.98
2018-07-31T00:13:16.182Z,66.78
2018-07-31T00:15:45.053Z,66.37
2018-07-31T00:18:13.943Z,67.39
2018-07-31T00:20:42.839Z,67.06
2018-07-31T00:23:11.769Z,67.83
2018-07-31T00:25:40.658Z,67.03
2018-07-31T00:28:09.651Z,66.58
2018-07-31T00:30:38.581Z,66.97
2018-07-31T00:33:07.745Z,67.17
2018-07-31T00:35:36.623Z,67.44
2018-07-31T00:38:05.935Z,67.12
2018-07-31T00:40:34.820Z,68.26
2018-07-31T00:43:03.823Z,68.31
2018-07-31T00:45:32.707Z,69.34
2018-07-31T00:48:01.604Z,68.89
2018-07-31T00:50:30.521Z,68.73
2018-07-31T00:52:59.383Z,68.72
2018-07-31T00:55:28.363Z,67.84
2018-07-31T00:57:57.415Z,68.27
2018-07-31T01:00:26.303Z,67.96
2018-07-31T01:02:55.151Z,67.00
2018-07-31T01:05:24.047Z,67.43
2018-07-31T01:07:52.937Z,67.80
2018-07-31T01:10:21.960Z,67.92
2018-07-31T01:12:50.833Z,68.17
2018-07-31T01:15:19.711Z,68.53
2018-07-31T01:17:48.715Z,68.83
2018-07-31T01:20:17.623Z,68.52
2018-07-31T01:22:46.535Z,67.19
2018-07-31T01:25:15.451Z,67.54
2018-07-31T01:27:44.343Z,66.96
2018-07-31T01:30:13.219Z,67.62
2018-07-31T01:32:42.103Z,67.98
2018-07-31T01:35:11.049Z,68.53
2018-07-31T01:37:40.068Z,69.41
2018-07-31T01:40:08.931Z,69.62
2018-07-31T01:42:37.927Z,69.16
2018-07-31T01:45:06.831Z,70.99
2018-07-31T01:47:35.757Z,70.30
2018-07-31T01:50:04.680Z,69.50
2018-07-31T01:52:33.544Z,69.97
2018-07-31T01:55:02.475Z,69.37
2018-07-31T01:57:31.312Z,69.90
2018-07-31T02:00:00.168Z,70.24
2018-07-31T02:02:29.055Z,69.89
2018-07-31T02:04:57.933Z,69.99
2018-07-31T02:07:26.805Z,69.17
2018-07-31T02:09:55.663Z,69.53
2018-07-31T02:12:24.615Z,69.84
2018-07-31T02:14:53.537Z,69.58
2018-07-31T02:17:22.639Z,69.34
2018-07-31T02:19:51.476Z,69.39
2018-07-31T02:22:25.967Z,69.28
2018-07-31T02:25:00.430Z,69.67
2018-07-31T02:27:29.262Z,69.24
2018-07-31T02:30:03.633Z,69.21
2018-07-31T02:32:32.581Z,70.14
2018-07-31T02:35:01.471Z,70.09
2018-07-31T02:37:30.366Z,70.45
2018-07-31T02:39:59.224Z,70.64
2018-07-31T02:42:28.193Z,70.19
2018-07-31T02:44:57.103Z,70.26
2018-07-31T02:47:25.975Z,70.90
2018-07-31T02:49:54.828Z,70.36
2018-07-31T02:52:23.762Z,71.00
2018-07-31T02:54:52.788Z,70.78
2018-07-31T02:57:21.724Z,70.02
2018-07-31T02:59:50.579Z,69.46
2018-07-31T03:02:19.470Z,69.50
2018-07-31T03:04:48.303Z,69.73
2018-07-31T03:07:17.197Z,69.10
2018-07-31T03:09:46.147Z,68.77
2018-07-31T03:12:15.032Z,68.17
2018-07-31T03:14:50.648Z,68.54
2018-07-31T03:17:19.628Z,68.79
2018-07-31T03:19:48.589Z,69.01
2018-07-31T03:22:17.509Z,68.39
2018-07-31T03:24:46.524Z,68.28
2018-07-31T03:27:15.397Z,67.47
2018-07-31T03:29:44.350Z,67.97
2018-07-31T03:32:13.215Z,68.13
2018-07-31T03:34:42.275Z,68.05
2018-07-31T03:37:11.250Z,67.50
2018-07-31T03:39:40.159Z,67.49
2018-07-31T03:42:09.044Z,67.74
2018-07-31T03:44:37.935Z,67.95
2018-07-31T03:47:06.810Z,68.57
2018-07-31T03:49:35.675Z,68.70
2018-07-31T03:52:04.603Z,68.34
2018-07-31T03:54:33.617Z,68.31
2018-07-31T03:57:02.545Z,68.58
2018-07-31T03:59:31.447Z,68.47
2018-07-31T04:02:00.493Z,68.91
2018-07-31T04:04:29.343Z,68.47
2018-07-31T04:06:58.377Z,67.77
2018-07-31T04:09:27.271Z,68.66
2018-07-31T04:11:56.182Z,68.18
2018-07-31T04:14:25.251Z,68.50
2018-07-31T04:16:54.235Z,68.71
2018-07-31T04:19:23.063Z,68.83
2018-07-31T04:21:52.036Z,68.93
2018-07-31T04:24:21.131Z,68.84
2018-07-31T04:26:49.993Z,69.07
2018-07-31T04:29:18.869Z,68.72
2018-07-31T04:31:47.734Z,68.90
2018-07-31T04:34:16.704Z,69.00
2018-07-31T04:36:45.664Z,69.43
2018-07-31T04:39:14.983Z,68.76
2018-07-31T04:41:44.224Z,68.78
2018-07-31T04:44:13.169Z,69.50
2018-07-31T04:46:42.069Z,69.73
2018-07-31T04:49:11.059Z,69.55
2018-07-31T04:51:40.104Z,69.77
2018-07-31T04:54:08.941Z,69.82
2018-07-31T04:56:37.845Z,69.73
2018-07-31T04:59:06.717Z,69.22
2018-07-31T05:01:35.638Z,69.25
2018-07-31T05:04:04.620Z,68.81
2018-07-31T05:06:33.504Z,68.54
2018-07-31T05:09:02.511Z,68.17
2018-07-31T05:11:31.390Z,68.21
2018-07-31T05:14:00.280Z,67.81
2018-07-31T05:16:29.151Z,67.97
2018-07-31T05:18:58.064Z,68.08
2018-07-31T05:21:27.064Z,68.16
2018-07-31T05:23:55.926Z,68.34
2018-07-31T05:26:24.870Z,68.34
2018-07-31T05:28:53.822Z,67.65
2018-07-31T05:31:24.093Z,67.67
2018-07-31T05:33:52.992Z,68.17
2018-07-31T05:36:21.876Z,68.32
2018-07-31T05:38:50.814Z,68.10
2018-07-31T05:41:19.710Z,67.98
2018-07-31T05:43:48.602Z,67.68
2018-07-31T05:46:17.472Z,65.67
2018-07-31T05:48:46.400Z,66.53
2018-07-31T05:51:15.480Z,66.74
2018-07-31T05:53:44.344Z,66.16
2018-07-31T05:56:13.227Z,65.55
2018-07-31T05:58:42.135Z,65.59
2018-07-31T06:01:11.126Z,64.92
2018-07-31T06:03:40.209Z,64.61
2018-07-31T06:06:09.077Z,64.78
2018-07-31T06:08:38.050Z,63.98
2018-07-31T06:11:07.006Z,64.27
2018-07-31T06:13:36.008Z,63.98
2018-07-31T06:16:04.888Z,64.63
2018-07-31T06:18:33.750Z,64.39
2018-07-31T06:21:02.640Z,64.62
2018-07-31T06:23:31.519Z,64.26
2018-07-31T06:26:00.527Z,64.52
2018-07-31T06:28:29.359Z,65.81
2018-07-31T06:30:58.205Z,65.01
2018-07-31T06:33:27.070Z,65.46
2018-07-31T06:35:56.096Z,65.56
2018-07-31T06:38:24.965Z,65.97
2018-07-31T06:40:53.871Z,66.05
2018-07-31T06:43:22.790Z,66.52
2018-07-31T06:45:51.629Z,66.44
2018-07-31T06:48:20.512Z,66.21
2018-07-31T06:50:49.426Z,65.73
2018-07-31T06:53:18.470Z,65.59
2018-07-31T06:55:47.522Z,65.72
2018-07-31T06:58:16.673Z,65.66
2018-07-31T07:00:45.677Z,66.03
2018-07-31T07:03:14.544Z,66.42
2018-07-31T07:05:43.412Z,66.78
2018-07-31T07:08:12.267Z,67.58
2018-07-31T07:10:41.154Z,67.65
2018-07-31T07:13:10.112Z,68.70
2018-07-31T07:15:39.032Z,68.31
2018-07-31T07:18:08.300Z,68.24
2018-07-31T07:20:37.191Z,65.47
2018-07-31T07:23:06.440Z,63.05
2018-07-31T07:25:35.344Z,62.33
2018-07-31T07:28:04.203Z,59.10
2018-07-31T07:30:33.268Z,57.50
2018-07-31T07:33:02.160Z,58.94
2018-07-31T07:35:31.136Z,59.42
2018-07-31T07:38:00.103Z,62.07
2018-07-31T07:40:29.020Z,59.39
2018-07-31T07:42:58.032Z,58.62
2018-07-31T07:45:26.912Z,60.29
2018-07-31T07:47:55.784Z,63.14
2018-07-31T07:50:24.638Z,65.59
2018-07-31T07:52:53.514Z,64.68
2018-07-31T07:55:22.440Z,62.82
2018-07-31T07:57:51.506Z,61.54
2018-07-31T08:00:20.564Z,60.44
2018-07-31T08:02:49.779Z,59.59
2018-07-31T08:05:18.922Z,60.88
2018-07-31T08:07:48.062Z,58.61
2018-07-31T08:10:17.201Z,57.46
2018-07-31T08:12:52.566Z,56.03
2018-07-31T08:15:21.625Z,57.93
2018-07-31T08:17:50.628Z,56.42
2018-07-31T08:20:19.811Z,54.61
2018-07-31T08:22:48.910Z,53.28
2018-07-31T08:25:17.816Z,54.00
2018-07-31T08:27:46.780Z,54.32
2018-07-31T08:30:15.612Z,54.59
2018-07-31T08:32:44.498Z,55.67
2018-07-31T08:35:13.353Z,54.60
2018-07-31T08:37:42.232Z,54.47
2018-07-31T08:40:11.086Z,55.17
2018-07-31T08:42:39.954Z,54.82
2018-07-31T08:45:08.943Z,54.58
2018-07-31T08:47:37.932Z,55.16
2018-07-31T08:50:06.926Z,55.10
2018-07-31T08:52:35.830Z,54.46
2018-07-31T08:55:04.747Z,53.30
2018-07-31T08:57:33.610Z,53.23
2018-07-31T09:00:02.516Z,52.08
2018-07-31T09:02:31.542Z,53.17
2018-07-31T09:05:00.459Z,53.30
2018-07-31T09:07:29.365Z,52.99
2018-07-31T09:09:58.251Z,53.29
2018-07-31T09:12:27.182Z,52.70
2018-07-31T09:14:56.024Z,50.34
2018-07-31T09:17:24.934Z,51.80
2018-07-31T09:19:53.926Z,52.94
2018-07-31T09:22:23.731Z,53.30
2018-07-31T09:24:53.190Z,52.02
2018-07-31T09:27:22.204Z,52.47
2018-07-31T09:29:51.178Z,53.15
2018-07-31T09:32:25.244Z,52.81
2018-07-31T09:34:54.123Z,54.07
2018-07-31T09:37:23.134Z,54.73
2018-07-31T09:39:52.366Z,53.68
2018-07-31T09:42:21.293Z,55.07
2018-07-31T09:44:50.202Z,55.64
2018-07-31T09:47:19.078Z,54.83
2018-07-31T09:49:48.029Z,53.56
2018-07-31T09:52:16.966Z,53.33
2018-07-31T09:54:45.814Z,53.77
2018-07-31T09:57:14.863Z,53.01
2018-07-31T09:59:43.703Z,53.08
2018-07-31T10:02:12.909Z,54.21
2018-07-31T10:04:41.841Z,53.83
2018-07-31T10:07:10.745Z,55.14
2018-07-31T10:09:39.737Z,54.72
2018-07-31T10:12:08.654Z,53.27
2018-07-31T10:14:37.533Z,52.07
2018-07-31T10:17:06.708Z,51.32
2018-07-31T10:19:35.601Z,50.46
2018-07-31T10:22:04.559Z,50.54
2018-07-31T10:24:33.467Z,50.49
2018-07-31T10:27:02.440Z,51.04
2018-07-31T10:29:31.339Z,50.97
2018-07-31T10:32:00.359Z,51.02
2018-07-31T10:34:29.246Z,51.35
2018-07-31T10:36:58.208Z,51.93
2018-07-31T10:39:27.310Z,52.02
2018-07-31T10:41:56.262Z,51.88
2018-07-31T10:44:25.198Z,51.59
2018-07-31T10:46:54.735Z,51.06
2018-07-31T10:49:23.732Z,51.25
2018-07-31T10:51:53.700Z,51.88
2018-07-31T10:54:22.624Z,51.10
2018-07-31T10:56:51.490Z,50.85
2018-07-31T10:59:20.448Z,50.51
2018-07-31T11:01:49.323Z,50.62
2018-07-31T11:04:18.266Z,49.94
2018-07-31T11:06:47.147Z,49.13
2018-07-31T11:09:16.153Z,49.46
2018-07-31T11:11:45.143Z,49.12
2018-07-31T11:14:14.050Z,48.31
2018-07-31T11:16:42.948Z,48.08
2018-07-31T11:19:11.933Z,48.48
2018-07-31T11:21:40.951Z,48.91
2018-07-31T11:24:09.880Z,48.46
2018-07-31T11:26:38.799Z,48.17
2018-07-31T11:29:07.701Z,47.52
2018-07-31T11:31:36.628Z,47.25
2018-07-31T11:34:05.715Z,47.12
2018-07-31T11:36:34.709Z,47.26
2018-07-31T11:39:03.828Z,47.35
2018-07-31T11:41:32.787Z,47.30
2018-07-31T11:44:01.750Z,46.69
2018-07-31T11:46:30.643Z,46.63
2018-07-31T11:48:59.661Z,46.28
2018-07-31T11:51:28.631Z,46.44
2018-07-31T11:53:57.848Z,47.63
2018-07-31T11:56:26.857Z,47.58
2018-07-31T11:58:55.744Z,44.66
2018-07-31T12:01:25.667Z,45.91
2018-07-31T12:03:54.576Z,46.14
2018-07-31T12:06:23.723Z,45.89
2018-07-31T12:08:52.652Z,44.94
2018-07-31T12:11:21.512Z,43.58
2018-07-31T12:13:50.406Z,43.60
2018-07-31T12:16:19.282Z,42.46
2018-07-31T12:18:48.272Z,41.66
2018-07-31T12:21:17.175Z,41.64
2018-07-31T12:23:46.228Z,41.40
2018-07-31T12:26:15.119Z,41.16
2018-07-31T12:28:44.051Z,40.76
2018-07-31T12:31:13.051Z,41.45
2018-07-31T12:33:42.026Z,41.90
2018-07-31T12:36:11.383Z,42.40
2018-07-31T12:38:40.497Z,42.15
2018-07-31T12:41:09.634Z,42.95
2018-07-31T12:43:38.762Z,42.85
2018-07-31T12:46:07.791Z,43.36
2018-07-31T12:48:36.944Z,44.03
2018-07-31T12:51:05.823Z,43.97
2018-07-31T12:53:34.793Z,44.43
2018-07-31T12:56:03.989Z,44.43
2018-07-31T12:58:33.211Z,44.79
2018-07-31T13:01:02.462Z,44.64
2018-07-31T13:03:31.611Z,43.88
2018-07-31T13:06:00.905Z,41.73
2018-07-31T13:08:30.080Z,42.31
2018-07-31T13:10:59.179Z,43.17
2018-07-31T13:13:28.259Z,42.34
2018-07-31T13:15:57.175Z,43.09
2018-07-31T13:18:26.227Z,42.69
2018-07-31T13:20:55.256Z,42.42
2018-07-31T13:23:24.279Z,42.27
2018-07-31T13:25:53.349Z,43.07
2018-07-31T13:28:22.499Z,42.80
2018-07-31T13:30:51.773Z,43.57
2018-07-31T13:33:20.835Z,43.05
2018-07-31T13:35:50.033Z,42.12
2018-07-31T13:38:19.129Z,42.56
2018-07-31T13:40:48.145Z,43.16
2018-07-31T13:43:17.093Z,43.45
2018-07-31T13:45:46.117Z,42.81
2018-07-31T13:48:15.628Z,41.01
2018-07-31T13:50:44.808Z,41.96
2018-07-31T13:53:14.091Z,42.37
2018-07-31T13:55:43.271Z,41.66
2018-07-31T13:58:12.393Z,41.42
2018-07-31T14:00:41.672Z,41.52
2018-07-31T14:03:11.057Z,41.83
2018-07-31T14:05:40.160Z,41.15
2018-07-31T14:08:09.202Z,41.54
2018-07-31T14:10:38.169Z,41.96
2018-07-31T14:13:07.352Z,42.34
2018-07-31T14:15:36.542Z,42.44
2018-07-31T14:18:05.675Z,42.47
2018-07-31T14:20:34.891Z,42.40
2018-07-31T14:23:03.903Z,42.06
2018-07-31T14:25:33.026Z,42.59
2018-07-31T14:28:02.146Z,42.24
2018-07-31T14:30:31.348Z,42.47
2018-07-31T14:33:00.288Z,42.56
2018-07-31T14:35:29.305Z,42.29
2018-07-31T14:37:58.269Z,42.57
2018-07-31T14:40:27.729Z,42.03
2018-07-31T14:42:56.893Z,40.52
2018-07-31T14:45:26.015Z,40.09
2018-07-31T14:47:55.926Z,39.53
2018-07-31T14:50:25.047Z,39.66
2018-07-31T14:52:54.359Z,38.77
2018-07-31T14:55:24.273Z,39.31
2018-07-31T14:57:53.729Z,40.07
2018-07-31T15:00:23.036Z,39.83
2018-07-31T15:02:51.969Z,39.34
2018-07-31T15:05:20.959Z,39.62
2018-07-31T15:07:49.840Z,39.93
2018-07-31T15:10:18.820Z,40.31
2018-07-31T15:12:47.739Z,40.42
2018-07-31T15:15:16.581Z,40.99
2018-07-31T15:17:45.591Z,40.67
2018-07-31T15:20:14.610Z,40.61
2018-07-31T15:22:43.666Z,40.99
2018-07-31T15:25:12.562Z,40.52
2018-07-31T15:27:41.458Z,40.74
2018-07-31T15:30:10.482Z,40.82
2018-07-31T15:32:39.420Z,41.22
2018-07-31T15:35:08.320Z,40.98
2018-07-31T15:37:37.286Z,41.08
2018-07-31T15:40:06.289Z,41.13
2018-07-31T15:42:35.204Z,41.57
2018-07-31T15:45:04.158Z,42.02
2018-07-31T15:47:33.186Z,41.87
2018-07-31T15:50:02.032Z,41.35
2018-07-31T15:52:30.903Z,41.64
2018-07-31T15:54:59.908Z,41.42
2018-07-31T15:57:29.047Z,40.93
2018-07-31T15:59:58.110Z,41.10
2018-07-31T16:02:26.997Z,41.25
2018-07-31T16:04:55.892Z,40.96
2018-07-31T16:07:24.795Z,41.06
2018-07-31T16:09:53.650Z,42.08
2018-07-31T16:12:22.543Z,41.08
2018-07-31T16:14:51.411Z,41.52
2018-07-31T16:17:20.537Z,41.68
2018-07-31T16:19:49.539Z,40.94
2018-07-31T16:22:18.478Z,41.57
2018-07-31T16:24:47.408Z,40.72
2018-07-31T16:27:16.364Z,40.81
2018-07-31T16:29:45.249Z,40.47
2018-07-31T16:32:14.193Z,39.88
2018-07-31T16:34:43.233Z,40.60
2018-07-31T16:37:12.182Z,41.01
2018-07-31T16:39:41.309Z,41.51
2018-07-31T16:42:10.168Z,40.49
2018-07-31T16:44:39.260Z,39.73
2018-07-31T16:47:08.210Z,40.38
2018-07-31T16:49:37.104Z,41.51
2018-07-31T16:52:06.134Z,43.06
2018-07-31T16:54:35.180Z,41.66
2018-07-31T16:57:04.171Z,40.82
2018-07-31T16:59:33.271Z,41.85
2018-07-31T17:02:02.466Z,41.81
2018-07-31T17:04:31.589Z,42.50
2018-07-31T17:07:00.493Z,42.48
2018-07-31T17:09:29.348Z,42.76
2018-07-31T17:11:58.310Z,43.04
2018-07-31T17:14:27.378Z,42.80
2018-07-31T17:16:56.404Z,43.24
2018-07-31T17:19:25.374Z,44.87
2018-07-31T17:21:54.279Z,45.30
2018-07-31T17:24:23.166Z,45.95
2018-07-31T17:26:52.124Z,45.75
2018-07-31T17:29:21.093Z,45.94
2018-07-31T17:31:50.142Z,45.48
2018-07-31T17:34:19.136Z,45.05
2018-07-31T17:36:48.334Z,44.59
2018-07-31T17:39:17.572Z,45.27
2018-07-31T17:41:46.620Z,44.92
2018-07-31T17:44:15.978Z,45.21
2018-07-31T17:46:45.165Z,44.85
2018-07-31T17:49:14.080Z,44.81
2018-07-31T17:51:43.203Z,45.37
2018-07-31T17:54:12.226Z,45.80
2018-07-31T17:56:41.315Z,45.95
2018-07-31T17:59:10.371Z,46.03
2018-07-31T18:01:39.724Z,45.47
2018-07-31T18:04:08.872Z,45.15
2018-07-31T18:06:38.304Z,45.53
2018-07-31T18:09:12.794Z,45.53
2018-07-31T18:11:47.332Z,45.22
2018-07-31T18:14:16.719Z,45.31
2018-07-31T18:16:45.534Z,45.83
2018-07-31T18:19:14.822Z,45.82
2018-07-31T18:21:43.877Z,45.92
2018-07-31T18:24:12.887Z,46.35
2018-07-31T18:26:42.025Z,46.04
2018-07-31T18:29:11.145Z,46.29
2018-07-31T18:31:40.297Z,46.36
2018-07-31T18:34:09.440Z,45.51
2018-07-31T18:36:38.726Z,44.83
2018-07-31T18:39:10.367Z,44.26
2018-07-31T18:41:39.751Z,44.97
2018-07-31T18:44:09.436Z,45.63
2018-07-31T18:46:38.958Z,46.36
2018-07-31T18:49:08.260Z,46.96
2018-07-31T18:51:37.358Z,47.42
2018-07-31T18:54:06.472Z,47.22
2018-07-31T18:56:35.573Z,47.22
2018-07-31T18:59:04.702Z,46.46
2018-07-31T19:01:33.819Z,46.49
2018-07-31T19:04:05.060Z,46.73
2018-07-31T19:06:33.996Z,47.17
2018-07-31T19:09:04.381Z,46.52
2018-07-31T19:11:33.482Z,47.14
2018-07-31T19:14:02.582Z,46.95
2018-07-31T19:16:32.481Z,46.88
2018-07-31T19:19:01.725Z,47.27
2018-07-31T19:21:31.093Z,47.11
2018-07-31T19:24:00.497Z,46.91
2018-07-31T19:26:29.808Z,46.63
2018-07-31T19:28:59.267Z,46.58
2018-07-31T19:31:28.313Z,47.70
2018-07-31T19:33:57.365Z,47.72
2018-07-31T19:36:26.234Z,47.74
2018-07-31T19:38:55.152Z,47.97
2018-07-31T19:41:24.112Z,47.76
2018-07-31T19:43:53.025Z,47.68
2018-07-31T19:46:22.034Z,47.81
2018-07-31T19:48:52.433Z,47.43
2018-07-31T19:51:21.357Z,47.95
2018-07-31T19:53:50.592Z,47.67
2018-07-31T19:58:53.577Z,49.00
2018-07-31T20:01:22.495Z,49.17
2018-07-31T20:03:51.536Z,49.25
2018-07-31T20:06:20.615Z,49.45
2018-07-31T20:08:49.559Z,48.80
2018-07-31T20:11:18.492Z,49.33
2018-07-31T20:13:48.668Z,49.52
2018-07-31T20:16:17.683Z,50.15
2018-07-31T20:18:46.736Z,50.24
2018-07-31T20:21:15.753Z,50.92
2018-07-31T20:23:44.922Z,50.83
2018-07-31T20:26:13.895Z,50.86
2018-07-31T20:28:42.782Z,50.37
2018-07-31T20:31:11.640Z,51.51
2018-07-31T20:33:40.641Z,51.42
2018-07-31T20:36:09.706Z,51.16
2018-07-31T20:38:38.614Z,51.28
2018-07-31T20:41:07.786Z,52.16
2018-07-31T20:43:36.805Z,52.34
2018-07-31T20:46:05.711Z,52.65
2018-07-31T20:48:34.607Z,53.00
2018-07-31T20:51:03.516Z,53.00
2018-07-31T20:53:32.489Z,54.95
2018-07-31T20:56:01.487Z,55.25
2018-07-31T20:58:30.509Z,54.85
2018-07-31T21:00:59.432Z,54.40
2018-07-31T21:03:28.538Z,54.12
2018-07-31T21:05:57.461Z,53.85
2018-07-31T21:08:26.453Z,53.29
2018-07-31T21:10:55.451Z,54.20
2018-07-31T21:13:25.062Z,55.10
2018-07-31T21:15:54.005Z,54.94
2018-07-31T21:18:23.060Z,55.15
2018-07-31T21:20:52.327Z,55.69
2018-07-31T21:23:21.231Z,56.21
2018-07-31T21:25:50.095Z,56.12
2018-07-31T21:28:19.019Z,56.26
2018-07-31T21:30:48.124Z,55.82
2018-07-31T21:33:17.146Z,55.70
2018-07-31T21:35:46.065Z,56.74
2018-07-31T21:38:15.056Z,57.29
2018-07-31T21:40:44.240Z,56.25
2018-07-31T21:43:13.100Z,56.74
2018-07-31T21:45:42.020Z,55.54
2018-07-31T21:48:10.937Z,56.24
2018-07-31T21:50:39.939Z,56.07
2018-07-31T21:53:08.880Z,56.82
2018-07-31T21:55:37.935Z,58.13
2018-07-31T21:58:06.814Z,58.75
2018-07-31T22:00:40.991Z,58.45
2018-07-31T22:03:09.981Z,58.95
2018-07-31T22:05:39.021Z,59.00
2018-07-31T22:08:08.015Z,57.35
2018-07-31T22:10:37.019Z,57.91
2018-07-31T22:13:05.854Z,57.46
2018-07-31T22:15:34.743Z,57.64
2018-07-31T22:18:03.607Z,58.16
2018-07-31T22:20:32.703Z,57.51
2018-07-31T22:23:01.852Z,57.82
2018-07-31T22:25:30.759Z,58.13
2018-07-31T22:27:59.686Z,57.87
2018-07-31T22:30:28.671Z,57.56
2018-07-31T22:32:57.554Z,57.71
2018-07-31T22:35:26.562Z,58.18
2018-07-31T22:37:55.562Z,57.72
2018-07-31T22:40:24.620Z,58.44
2018-07-31T22:42:53.880Z,57.73
2018-07-31T22:45:22.905Z,57.28
2018-07-31T22:47:52.026Z,57.88
2018-07-31T22:50:20.858Z,58.35
2018-07-31T22:52:49.902Z,58.53
2018-07-31T22:55:18.840Z,58.58
2018-07-31T22:57:47.850Z,58.28
2018-07-31T23:00:16.853Z,59.08
2018-07-31T23:02:45.949Z,59.70
2018-07-31T23:05:14.902Z,59.70
2018-07-31T23:07:43.784Z,59.41
2018-07-31T23:10:12.792Z,59.84
2018-07-31T23:12:41.662Z,60.20
2018-07-31T23:15:10.690Z,61.16
2018-07-31T23:17:39.703Z,60.79
2018-07-31T23:20:08.682Z,60.09
2018-07-31T23:22:44.698Z,59.76
2018-07-31T23:25:14.025Z,60.18
2018-07-31T23:27:43.075Z,60.12
2018-07-31T23:30:12.170Z,60.22
2018-07-31T23:32:41.627Z,60.94
2018-07-31T23:35:10.680Z,60.94
2018-07-31T23:37:39.617Z,61.10
2018-07-31T23:40:15.215Z,60.06
2018-07-31T23:42:44.062Z,60.83
2018-07-31T23:45:12.987Z,61.01
2018-07-31T23:47:41.882Z,62.15
2018-07-31T23:50:10.823Z,61.64
2018-07-31T23:52:39.808Z,61.93
2018-07-31T23:55:08.766Z,61.79
2018-07-31T23:57:37.658Z,62.27
